Chitose — JD2925 — position and weather

sailwx.info

Track history (hours):
 
Tides and Currents Weather Stations Pressure Air Temp Water Temp Dewpoint Dewpoint Depression Visibility Wind Speed Wind Dir Waves Ship Positions

Chitose

Last reported at 2017-Jan-17 20:34 UTC. Time now 2017-Jan-17 21:30 UTC.
Position N 35°27' E 139°40'.

Length 33 m; draft 3.8 m.

Type: Tug. MMSI: 431000953.

Date/timePositionNaut miles runAvg speedWind from/ knotsBaromVisibWave heightAir tempDewpointWater temp
2017-Jan-17 20:34N 35°27' E 139°40'2 0.1
2017-Jan-17 06:33N 35°27' E 139°42'0 0.0
2017-Jan-17 05:33N 35°27' E 139°42'0 0.0
2017-Jan-17 04:33N 35°27' E 139°42'4 4.1
2017-Jan-17 03:33N 35°24' E 139°38'0 0.4
2017-Jan-17 02:33N 35°24' E 139°38'2 2.3
2017-Jan-17 01:33N 35°23' E 139°41'3 2.9
2017-Jan-17 00:34N 35°26' E 139°42'2 2.2
2017-Jan-16 23:33N 35°27' E 139°40'0 0.0
2017-Jan-15 23:06N 35°27' E 139°40'1 2.4
2017-Jan-15 22:33N 35°26' E 139°41'2 2.2
2017-Jan-15 21:33N 35°26' E 139°43'1 1.4
2017-Jan-15 20:33N 35°25' E 139°42'2 1.5
2017-Jan-15 19:33N 35°24' E 139°41'1 0.9
2017-Jan-15 18:33N 35°23' E 139°40'0 0.0
2017-Jan-15 17:33N 35°23' E 139°40'0 0.0
2017-Jan-15 16:33N 35°23' E 139°40'0 0.0
2017-Jan-15 15:33N 35°23' E 139°40'0 0.0
2017-Jan-15 14:33N 35°23' E 139°40'0 0.0
2017-Jan-15 13:33N 35°23' E 139°40'0 0.0
2017-Jan-15 12:33N 35°23' E 139°40'2 1.8
2017-Jan-15 11:33N 35°23' E 139°42'3 3.3
2017-Jan-15 10:33N 35°27' E 139°42'1 0.9
2017-Jan-15 09:33N 35°28' E 139°42'3 2.7
2017-Jan-15 08:33N 35°27' E 139°45'4 4.4
2017-Jan-15 07:33N 35°27' E 139°39'0 0.0
2017-Jan-15 06:33N 35°27' E 139°39'0 0.0
2017-Jan-15 05:33N 35°27' E 139°39'0 0.0
2017-Jan-15 04:33N 35°27' E 139°39'0 0.0
2017-Jan-15 03:33N 35°27' E 139°39'0 0.0
2017-Jan-15 02:33N 35°27' E 139°39'0 0.0
2017-Jan-15 01:33N 35°27' E 139°39'0 0.0
2017-Jan-15 00:33N 35°27' E 139°39'0 0.0
2017-Jan-14 23:33N 35°27' E 139°39'2 1.7
2017-Jan-14 22:34N 35°28' E 139°42'2 1.7
2017-Jan-14 21:33N 35°27' E 139°40'0 0.0
2017-Jan-14 20:33N 35°27' E 139°40'0 0.0
2017-Jan-14 19:33N 35°27' E 139°40'0 0.0
2017-Jan-14 18:33N 35°27' E 139°40'0 0.0
2017-Jan-14 17:33N 35°27' E 139°40'0 0.0
2017-Jan-14 16:33N 35°27' E 139°40'0 0.0
2017-Jan-14 15:33N 35°27' E 139°40'0 0.0
2017-Jan-14 14:33N 35°27' E 139°40'0 0.0
2017-Jan-14 13:33N 35°27' E 139°40'0 0.0
2017-Jan-14 12:33N 35°27' E 139°40'0 0.0
2017-Jan-14 11:33N 35°27' E 139°40'0 0.0
2017-Jan-14 10:33N 35°27' E 139°40'0 0.0
2017-Jan-14 09:33N 35°27' E 139°40'0 0.0
2017-Jan-14 08:33N 35°27' E 139°40'0 0.0
2017-Jan-14 07:33N 35°27' E 139°40'0 0.0
2017-Jan-14 06:33N 35°27' E 139°40'0 0.2
2017-Jan-14 05:34N 35°27' E 139°40'1 1.3
2017-Jan-14 04:34N 35°27' E 139°41'1 1.3
2017-Jan-14 03:33N 35°27' E 139°40'0 0.0
2017-Jan-13 23:33N 35°27' E 139°40'4 4.0
2017-Jan-13 22:33N 35°30' E 139°43'4 4.0
2017-Jan-13 21:33N 35°27' E 139°40'0 0.0
2017-Jan-13 04:33N 35°27' E 139°40'0 0.0
2017-Jan-13 03:33N 35°27' E 139°40'0 0.0
2017-Jan-13 02:34N 35°27' E 139°40'0 0.0
2017-Jan-13 01:34N 35°27' E 139°40'0 0.0
2017-Jan-13 00:33N 35°27' E 139°40'7 6.7
2017-Jan-12 23:33N 35°30' E 139°47'1 1.4
2017-Jan-12 22:33N 35°30' E 139°45'2 1.5
2017-Jan-12 21:34N 35°32' E 139°46'7 6.8
2017-Jan-12 20:33N 35°27' E 139°39'0 0.0
2017-Jan-12 08:19N 35°27' E 139°40'0 0.0
2017-Jan-12 07:33N 35°27' E 139°40'1 1.2
2017-Jan-12 06:33N 35°27' E 139°41'3 3.1
2017-Jan-12 05:31N 35°29' E 139°44'2 2.1
2017-Jan-12 04:33N 35°27' E 139°46'5 5.1
2017-Jan-12 03:33N 35°27' E 139°40'0 0.0
2017-Jan-12 02:33N 35°27' E 139°40'0 0.0
2017-Jan-12 01:33N 35°27' E 139°40'0 0.0
2017-Jan-12 00:33N 35°27' E 139°40'0 0.0
2017-Jan-11 23:33N 35°27' E 139°40'0 0.0
2017-Jan-11 07:15N 35°27' E 139°40'2 2.3
2017-Jan-11 06:34N 35°27' E 139°42'2 2.3
2017-Jan-11 05:33N 35°28' E 139°44'0 0.4
2017-Jan-11 04:33N 35°28' E 139°44'0 0.0
2017-Jan-11 03:33N 35°28' E 139°44'1 0.7
2017-Jan-11 02:33N 35°28' E 139°44'2 1.6
2017-Jan-11 01:33N 35°29' E 139°46'0 0.0
2017-Jan-11 00:33N 35°29' E 139°46'0 0.0
2017-Jan-10 23:33N 35°29' E 139°46'2 1.6
2017-Jan-10 22:33N 35°30' E 139°45'4 4.1
2017-Jan-10 21:34N 35°26' E 139°43'3 3.0
2017-Jan-10 20:33N 35°27' E 139°40'0 0.0
2017-Jan-10 07:19N 35°27' E 139°40'6 8.2
2017-Jan-10 06:33N 35°29' E 139°47'1 1.1
2017-Jan-10 05:33N 35°30' E 139°46'0 0.1
2017-Jan-10 04:34N 35°30' E 139°46'0 0.0
2017-Jan-10 03:34N 35°30' E 139°46'1 0.6
2017-Jan-10 02:33N 35°31' E 139°46'3 3.3
2017-Jan-10 01:33N 35°28' E 139°46'8 7.7
2017-Jan-10 00:33N 35°24' E 139°38'2 2.0
2017-Jan-09 23:33N 35°23' E 139°40'4 3.5
2017-Jan-09 22:33N 35°27' E 139°40'0 0.0
2017-Jan-09 21:33N 35°27' E 139°40'0 0.0
2017-Jan-09 20:33N 35°27' E 139°40'2 0.1
2017-Jan-09 05:33N 35°26' E 139°42'3 3.0
2017-Jan-09 04:33N 35°24' E 139°40'5 5.5
2017-Jan-09 03:33N 35°28' E 139°45'1 1.3
2017-Jan-09 02:33N 35°29' E 139°45'2 1.8
2017-Jan-09 01:33N 35°28' E 139°44'2 2.1
2017-Jan-09 00:33N 35°27' E 139°42'2 1.7
2017-Jan-08 23:33N 35°27' E 139°40'0 0.0
2017-Jan-08 22:33N 35°27' E 139°40'0 0.0
2017-Jan-08 21:33N 35°27' E 139°40'0 0.0
2017-Jan-08 20:33N 35°27' E 139°40'0 0.0
2017-Jan-08 08:15N 35°27' E 139°40'2 2.8
2017-Jan-08 07:33N 35°28' E 139°42'0 0.4
2017-Jan-08 06:33N 35°28' E 139°42'2 2.3
2017-Jan-08 05:33N 35°29' E 139°44'3 2.6
2017-Jan-08 04:33N 35°30' E 139°47'2 2.0
2017-Jan-08 03:33N 35°30' E 139°45'1 0.9
2017-Jan-08 02:33N 35°30' E 139°44'2 1.9
2017-Jan-08 01:33N 35°29' E 139°42'3 2.5
2017-Jan-08 00:33N 35°27' E 139°39'0 0.1
2017-Jan-07 23:33N 35°27' E 139°39'2 2.1
2017-Jan-07 22:33N 35°28' E 139°42'2 1.5
2017-Jan-07 21:33N 35°27' E 139°43'  
Track history (hours):
 
Tides and Currents Weather Stations Pressure Air Temp Water Temp Dewpoint Dewpoint Depression Visibility Wind Speed Wind Dir Waves Ship Positions

Chitose

Last reported at 2017-Jan-17 20:34 UTC. Time now 2017-Jan-17 21:30 UTC.
Position N 35°27' E 139°40'.

Length 33 m; draft 3.8 m.

Type: Tug. MMSI: 431000953.

Date/timePositionNaut miles runAvg speedWind from/ knotsBaromVisibWave heightAir tempDewpointWater temp
2017-Jan-17 20:34N 35°27' E 139°40'2 0.1
2017-Jan-17 06:33N 35°27' E 139°42'0 0.0
2017-Jan-17 05:33N 35°27' E 139°42'0 0.0
2017-Jan-17 04:33N 35°27' E 139°42'4 4.1
2017-Jan-17 03:33N 35°24' E 139°38'0 0.4
2017-Jan-17 02:33N 35°24' E 139°38'2 2.3
2017-Jan-17 01:33N 35°23' E 139°41'3 2.9
2017-Jan-17 00:34N 35°26' E 139°42'2 2.2
2017-Jan-16 23:33N 35°27' E 139°40'0 0.0
2017-Jan-15 23:06N 35°27' E 139°40'1 2.4
2017-Jan-15 22:33N 35°26' E 139°41'2 2.2
2017-Jan-15 21:33N 35°26' E 139°43'1 1.4
2017-Jan-15 20:33N 35°25' E 139°42'2 1.5
2017-Jan-15 19:33N 35°24' E 139°41'1 0.9
2017-Jan-15 18:33N 35°23' E 139°40'0 0.0
2017-Jan-15 17:33N 35°23' E 139°40'0 0.0
2017-Jan-15 16:33N 35°23' E 139°40'0 0.0
2017-Jan-15 15:33N 35°23' E 139°40'0 0.0
2017-Jan-15 14:33N 35°23' E 139°40'0 0.0
2017-Jan-15 13:33N 35°23' E 139°40'0 0.0
2017-Jan-15 12:33N 35°23' E 139°40'2 1.8
2017-Jan-15 11:33N 35°23' E 139°42'3 3.3
2017-Jan-15 10:33N 35°27' E 139°42'1 0.9
2017-Jan-15 09:33N 35°28' E 139°42'3 2.7
2017-Jan-15 08:33N 35°27' E 139°45'4 4.4
2017-Jan-15 07:33N 35°27' E 139°39'0 0.0
2017-Jan-15 06:33N 35°27' E 139°39'0 0.0
2017-Jan-15 05:33N 35°27' E 139°39'0 0.0
2017-Jan-15 04:33N 35°27' E 139°39'0 0.0
2017-Jan-15 03:33N 35°27' E 139°39'0 0.0
2017-Jan-15 02:33N 35°27' E 139°39'0 0.0
2017-Jan-15 01:33N 35°27' E 139°39'0 0.0
2017-Jan-15 00:33N 35°27' E 139°39'0 0.0
2017-Jan-14 23:33N 35°27' E 139°39'2 1.7
2017-Jan-14 22:34N 35°28' E 139°42'2 1.7
2017-Jan-14 21:33N 35°27' E 139°40'0 0.0
2017-Jan-14 20:33N 35°27' E 139°40'0 0.0
2017-Jan-14 19:33N 35°27' E 139°40'0 0.0
2017-Jan-14 18:33N 35°27' E 139°40'0 0.0
2017-Jan-14 17:33N 35°27' E 139°40'0 0.0
2017-Jan-14 16:33N 35°27' E 139°40'0 0.0
2017-Jan-14 15:33N 35°27' E 139°40'0 0.0
2017-Jan-14 14:33N 35°27' E 139°40'0 0.0
2017-Jan-14 13:33N 35°27' E 139°40'0 0.0
2017-Jan-14 12:33N 35°27' E 139°40'0 0.0
2017-Jan-14 11:33N 35°27' E 139°40'0 0.0
2017-Jan-14 10:33N 35°27' E 139°40'0 0.0
2017-Jan-14 09:33N 35°27' E 139°40'0 0.0
2017-Jan-14 08:33N 35°27' E 139°40'0 0.0
2017-Jan-14 07:33N 35°27' E 139°40'0 0.0
2017-Jan-14 06:33N 35°27' E 139°40'0 0.2
2017-Jan-14 05:34N 35°27' E 139°40'1 1.3
2017-Jan-14 04:34N 35°27' E 139°41'1 1.3
2017-Jan-14 03:33N 35°27' E 139°40'0 0.0
2017-Jan-13 23:33N 35°27' E 139°40'4 4.0
2017-Jan-13 22:33N 35°30' E 139°43'4 4.0
2017-Jan-13 21:33N 35°27' E 139°40'0 0.0
2017-Jan-13 04:33N 35°27' E 139°40'0 0.0
2017-Jan-13 03:33N 35°27' E 139°40'0 0.0
2017-Jan-13 02:34N 35°27' E 139°40'0 0.0
2017-Jan-13 01:34N 35°27' E 139°40'0 0.0
2017-Jan-13 00:33N 35°27' E 139°40'7 6.7
2017-Jan-12 23:33N 35°30' E 139°47'1 1.4
2017-Jan-12 22:33N 35°30' E 139°45'2 1.5
2017-Jan-12 21:34N 35°32' E 139°46'7 6.8
2017-Jan-12 20:33N 35°27' E 139°39'0 0.0
2017-Jan-12 08:19N 35°27' E 139°40'0 0.0
2017-Jan-12 07:33N 35°27' E 139°40'1 1.2
2017-Jan-12 06:33N 35°27' E 139°41'3 3.1
2017-Jan-12 05:31N 35°29' E 139°44'2 2.1
2017-Jan-12 04:33N 35°27' E 139°46'5 5.1
2017-Jan-12 03:33N 35°27' E 139°40'0 0.0
2017-Jan-12 02:33N 35°27' E 139°40'0 0.0
2017-Jan-12 01:33N 35°27' E 139°40'0 0.0
2017-Jan-12 00:33N 35°27' E 139°40'0 0.0
2017-Jan-11 23:33N 35°27' E 139°40'0 0.0
2017-Jan-11 07:15N 35°27' E 139°40'2 2.3
2017-Jan-11 06:34N 35°27' E 139°42'2 2.3
2017-Jan-11 05:33N 35°28' E 139°44'0 0.4
2017-Jan-11 04:33N 35°28' E 139°44'0 0.0
2017-Jan-11 03:33N 35°28' E 139°44'1 0.7
2017-Jan-11 02:33N 35°28' E 139°44'2 1.6
2017-Jan-11 01:33N 35°29' E 139°46'0 0.0
2017-Jan-11 00:33N 35°29' E 139°46'0 0.0
2017-Jan-10 23:33N 35°29' E 139°46'2 1.6
2017-Jan-10 22:33N 35°30' E 139°45'4 4.1
2017-Jan-10 21:34N 35°26' E 139°43'3 3.0
2017-Jan-10 20:33N 35°27' E 139°40'0 0.0
2017-Jan-10 07:19N 35°27' E 139°40'6 8.2
2017-Jan-10 06:33N 35°29' E 139°47'1 1.1
2017-Jan-10 05:33N 35°30' E 139°46'0 0.1
2017-Jan-10 04:34N 35°30' E 139°46'0 0.0
2017-Jan-10 03:34N 35°30' E 139°46'1 0.6
2017-Jan-10 02:33N 35°31' E 139°46'3 3.3
2017-Jan-10 01:33N 35°28' E 139°46'8 7.7
2017-Jan-10 00:33N 35°24' E 139°38'2 2.0
2017-Jan-09 23:33N 35°23' E 139°40'4 3.5
2017-Jan-09 22:33N 35°27' E 139°40'0 0.0
2017-Jan-09 21:33N 35°27' E 139°40'0 0.0
2017-Jan-09 20:33N 35°27' E 139°40'2 0.1
2017-Jan-09 05:33N 35°26' E 139°42'3 3.0
2017-Jan-09 04:33N 35°24' E 139°40'5 5.5
2017-Jan-09 03:33N 35°28' E 139°45'1 1.3
2017-Jan-09 02:33N 35°29' E 139°45'2 1.8
2017-Jan-09 01:33N 35°28' E 139°44'2 2.1
2017-Jan-09 00:33N 35°27' E 139°42'2 1.7
2017-Jan-08 23:33N 35°27' E 139°40'0 0.0
2017-Jan-08 22:33N 35°27' E 139°40'0 0.0
2017-Jan-08 21:33N 35°27' E 139°40'0 0.0
2017-Jan-08 20:33N 35°27' E 139°40'0 0.0
2017-Jan-08 08:15N 35°27' E 139°40'2 2.8
2017-Jan-08 07:33N 35°28' E 139°42'0 0.4
2017-Jan-08 06:33N 35°28' E 139°42'2 2.3
2017-Jan-08 05:33N 35°29' E 139°44'3 2.6
2017-Jan-08 04:33N 35°30' E 139°47'2 2.0
2017-Jan-08 03:33N 35°30' E 139°45'1 0.9
2017-Jan-08 02:33N 35°30' E 139°44'2 1.9
2017-Jan-08 01:33N 35°29' E 139°42'3 2.5
2017-Jan-08 00:33N 35°27' E 139°39'0 0.1
2017-Jan-07 23:33N 35°27' E 139°39'2 2.1
2017-Jan-07 22:33N 35°28' E 139°42'2 1.5
2017-Jan-07 21:33N 35°27' E 139°43'  

Dump ship's entire track history